Palmer, PR (00721)

7:15 AM AST on February 07, 2016 (GMT -0400)
Ciudad Jardin | | Change Station
CLOSE
Current Station
Personal Weather Station
Location: Carolina, PR
Elevation: 10 ft
Nearby Weather Stations

Elev 10 ft 18.37 °N, 65.93 °W | Updated 6 seconds ago

Rain
Rain
72.3 °F
Feels Like 72.3 °F
N
0.0
Wind Variable Wind from South
Gusts 2.0 mph

Today
High -- | Low -- °F
--% Chance of Precip.
Yesterday
High -- | Low -- °F
Precip. -- in
Pressure 30.05 in
Visibility 8.0 miles
Clouds Scattered Clouds 2000 ft
Overcast 4000 ft
Dew Point 70 °F
Humidity 94%
Rainfall 0.25 in
Snow Depth Not available.
6:54 AM 6:20 PM
Waning Crescent, 2% visible
SPECI TJNR 071108Z AUTO 13008KT 8SM SCT020 OVC040 23/22 A3005 RMK AO2 T02330222 $
Pressure 30.05 in
Visibility 8.0 miles
Clouds Scattered Clouds 2000 ft
Overcast 4000 ft
Dew Point 70 °F
Humidity 94%
Rainfall 0.25 in
Snow Depth Not available.
6:54 AM 6:20 PM
Waning Crescent, 2% visible
SPECI TJNR 071108Z AUTO 13008KT 8SM SCT020 OVC040 23/22 A3005 RMK AO2 T02330222 $

10-Day Weather Forecast

Almanac

Astronomy

Feb. 07, 2016 Rise Set
Actual Time
Civil Twilight
Nautical Twilight
Astronomical Twilight
Moon
Length of Visible Light
Length of Day
Tomorrow will be .
, % of the Moon is Illuminated

Today's Extremes

State Highs State Lows

Community

WunderPhotos

Upload Photos

1,891,170 photos uploaded!

WunderBlog® & News

Nearby

Air Quality

  Air Quality AQ Index Pollutant
Not available.

Snow Depth

Station Depth Elevation

Earthquake Activity

City Distance Mag. Time & Date
Minimum magnitude displayed is 2.5.

Coastal Water Temperatures

Place Temperature

Stations

Nearby Weather Stations

Station Location Temp. Windchill Dew Point Humidity Wind Precip. Elev Updated Type
                   

Watches & Warnings

There are currently no watches in effect.